Date,TemperatureHighF,TemperatureAvgF,TemperatureLowF,DewpointHighF,DewpointAvgF,DewpointLowF,HumidityHigh,HumidityAvg,HumidityLow,PressureMaxIn,PressureMinIn,WindSpeedMaxMPH,WindSpeedAvgMPH,GustSpeedMaxMPH,PrecipitationSumIn
2012-1-1,67,50,32,51,37,27,88,63,36,30.16,29.86,12,3,17,0.04
2012-1-2,56,43,35,36,20,12,47,40,33,30.04,29.95,9,2,18,0.20
2012-1-3,35,30,26,13,8,4,43,39,34,30.33,30.01,14,3,29,0.00
2012-1-4,43,30,17,16,10,3,62,44,32,30.39,30.07,10,2,15,0.04
2012-1-5,54,39,27,28,20,10,61,47,36,30.10,30.01,11,1,16,0.04
2012-1-6,64,43,29,34,27,20,78,55,31,30.10,29.95,11,1,12,0.08
2012-1-7,69,49,34,42,34,25,81,60,36,30.04,29.92,13,2,22,0.00
2012-1-8,59,52,48,43,36,30,78,55,36,30.24,30.04,5,0,12,0.00
2012-1-9,49,45,43,42,40,36,90,82,61,30.27,30.07,0,0,5,0.24
2012-1-10,55,47,42,43,39,35,91,76,49,30.13,30.01,8,0,13,0.04
2012-1-11,60,51,42,59,46,37,97,84,67,30.01,29.51,9,1,16,0.39
2012-1-12,59,53,47,51,44,42,85,70,54,29.65,29.51,16,4,22,0.12
2012-1-13,57,42,34,44,20,14,63,42,38,30.04,29.51,22,8,34,0.00
2012-1-14,45,35,26,20,16,12,60,47,36,30.22,30.04,13,2,18,0.00
2012-1-15,43,34,27,26,19,16,75,55,40,30.54,30.13,9,0,16,0.00
2012-1-16,46,36,23,28,20,15,75,54,39,30.60,30.33,9,1,12,0.24
2012-1-17,65,54,45,53,41,28,83,62,49,30.33,29.86,16,4,33,0.08
2012-1-18,58,48,37,54,33,19,89,57,37,30.13,29.83,12,1,19,0.12
2012-1-19,48,39,29,26,20,13,55,46,38,30.24,30.04,9,1,16,0.00
2012-1-20,58,44,31,43,33,24,85,66,43,30.16,30.07,3,0,9,0.04
2012-1-21,60,52,38,56,48,31,96,87,77,30.19,29.86,11,0,13,0.43
2012-1-22,38,36,34,34,31,29,88,84,77,30.39,30.19,0,0,6,0.00
2012-1-23,53,52,52,52,51,50,96,96,95,30.04,30.01,0,0,0,0.00
2012-1-24,61,54,41,54,48,37,97,83,56,30.22,30.01,0,0,0,0.00
2012-1-25,60,45,32,44,35,29,93,72,42,30.33,30.19,0,0,0,0.00
2012-1-26,66,52,38,60,48,32,96,84,70,30.19,29.80,9,1,15,0.00
2012-1-27,67,62,48,61,49,29,87,64,38,30.04,29.59,16,5,23,0.31
2012-1-28,60,45,32,35,30,25,79,57,37,30.22,30.01,11,1,16,0.20
2012-1-29,52,42,32,24,19,15,56,40,27,30.36,30.22,9,1,16,0.31
2012-1-30,58,40,28,28,22,17,69,51,30,30.42,30.24,12,1,19,0.00
2012-1-31,66,48,33,32,27,22,69,47,27,30.39,30.22,13,2,22,0.31
2012-2-1,69,56,42,47,38,26,70,50,40,30.24,30.07,13,3,22,0.00
2012-2-2,68,60,48,53,44,29,87,59,36,30.30,29.98,0,0,5,0.04
2012-2-3,56,44,32,31,28,24,76,54,36,30.48,30.30,0,0,0,0.00
2012-2-4,57,46,34,48,38,26,87,76,50,30.39,30.04,8,0,13,0.20
2012-2-5,51,44,33,48,40,28,90,85,75,30.24,29.98,0,0,3,0.12
2012-2-6,48,39,31,36,31,27,90,74,48,30.30,30.13,0,0,0,0.00
2012-2-7,56,43,32,37,32,28,88,66,40,30.19,30.10,6,0,9,0.00
2012-2-8,51,40,30,38,30,24,88,70,52,30.19,30.07,0,0,9,0.00
2012-2-9,49,39,29,30,26,23,83,62,40,30.27,30.16,12,1,12,0.00
2012-2-10,51,40,28,37,30,22,86,68,50,30.22,29.89,8,0,9,0.00
2012-2-11,50,40,26,38,25,3,84,56,34,30.01,29.68,13,3,30,0.00
2012-2-12,41,30,23,14,7,0,49,37,32,30.22,30.01,15,4,24,0.08
2012-2-13,50,34,20,22,16,9,67,47,30,30.27,30.13,9,1,16,0.00
2012-2-14,59,48,34,36,28,18,52,46,36,30.16,29.98,11,2,20,0.08
2012-2-15,62,49,35,39,31,26,82,52,31,30.27,30.07,9,0,11,0.00
2012-2-16,59,48,38,50,39,26,90,72,47,30.27,30.01,9,1,17,0.00
2012-2-17,61,52,42,49,41,34,93,69,38,30.10,30.01,12,0,12,0.00
2012-2-18,64,52,41,40,36,33,78,59,34,30.13,29.95,9,1,16,0.24
2012-2-19,51,42,34,43,35,30,89,78,53,29.98,29.71,7,0,12,0.55
2012-2-20,49,39,30,33,28,22,89,66,41,30.36,29.89,0,0,0,0.24
2012-2-21,58,43,26,42,31,20,85,66,47,30.33,29.98,16,1,18,0.00
2012-2-22,69,54,37,51,39,33,93,62,35,29.98,29.59,18,2,26,0.00
2012-2-23,72,60,45,58,49,40,93,71,45,29.71,29.57,13,2,21,0.12
2012-2-24,77,67,51,60,54,26,82,62,36,29.83,29.45,26,7,34,0.04
2012-2-25,53,46,38,25,19,12,40,34,29,30.30,29.83,15,5,33,0.00
2012-2-26,52,39,26,23,18,12,60,44,31,30.51,30.33,9,1,12,0.00
2012-2-27,50,43,30,47,36,18,91,78,59,30.45,30.33,0,0,4,0.16
2012-2-28,63,52,40,47,38,33,92,64,34,30.42,30.30,6,0,9,0.00
2012-2-29,70,58,47,59,48,35,86,69,60,30.30,29.83,16,3,24,0.04
2012-3-1,79,69,53,60,51,38,81,58,28,29.86,29.71,22,6,28,0.00
2012-3-2,59,56,48,56,49,39,90,78,73,30.01,29.71,5,0,9,0.00
2012-3-3,65,59,52,62,55,47,94,87,73,29.74,29.59,13,1,26,0.87
2012-3-4,53,47,35,48,33,20,90,63,35,30.01,29.65,11,2,20,0.43
2012-3-5,53,42,31,29,23,15,72,47,34,30.48,29.92,24,4,31,0.00
2012-3-6,53,39,26,26,21,14,69,49,36,30.69,30.48,7,1,11,0.00
2012-3-7,68,51,32,46,36,24,81,58,37,30.66,30.45,19,2,19,0.00
2012-3-8,74,61,44,56,45,38,91,60,34,30.45,30.13,16,4,21,0.00
2012-3-9,61,56,38,58,42,30,91,64,35,30.30,30.07,9,1,16,0.16
2012-3-10,55,46,37,31,26,24,76,48,33,30.54,30.30,7,1,13,0.00
2012-3-11,62,46,30,32,27,22,77,50,29,30.60,30.42,7,1,9,0.00
2012-3-12,71,54,36,49,38,26,88,57,37,30.45,30.24,12,2,18,0.00
2012-3-13,76,66,58,56,52,45,80,62,46,30.24,30.10,15,3,18,0.00
2012-3-14,81,66,52,62,51,46,92,61,31,30.22,30.13,9,0,12,0.00
2012-3-15,84,67,52,59,49,46,89,58,29,30.27,30.16,13,2,16,0.00
2012-3-16,79,68,57,58,53,48,83,60,36,30.22,30.10,11,1,19,0.28
2012-3-17,77,68,61,63,57,53,91,70,44,30.24,30.16,9,1,12,0.00
2012-3-18,70,64,59,60,57,54,91,79,67,30.33,30.19,6,0,9,0.08
2012-3-19,73,63,55,64,58,52,95,83,61,30.24,30.13,5,0,10,0.16
2012-3-20,77,67,58,66,59,54,93,77,47,30.27,30.10,6,0,9,0.43
2012-3-21,75,68,60,63,59,56,91,74,56,30.30,30.19,6,0,11,0.04
2012-3-22,79,68,58,65,57,53,91,70,44,30.27,30.13,7,1,12,0.00
2012-3-23,82,70,59,66,58,53,90,66,42,30.16,29.95,14,2,18,0.00
2012-3-24,69,67,59,65,61,54,87,81,68,29.98,29.77,5,0,9,1.26
2012-3-25,66,61,56,60,55,52,92,81,69,29.80,29.68,9,0,9,0.12
2012-3-26,74,66,59,56,48,30,86,57,32,30.10,29.77,12,1,19,0.00
2012-3-27,60,52,42,30,25,16,52,35,28,30.36,30.10,8,1,12,0.00
2012-3-28,78,61,43,53,44,28,68,54,41,30.27,29.83,20,6,26,0.00
2012-3-29,80,71,56,54,44,36,67,41,22,29.92,29.80,16,3,20,0.00
2012-3-30,75,64,50,55,46,36,68,53,43,30.04,29.86,9,1,9,0.00
2012-3-31,74,68,63,62,58,54,83,72,55,29.86,29.68,12,1,14,0.12
2012-4-1,69,60,52,54,48,44,77,64,44,29.92,29.71,12,2,12,0.00
2012-4-2,71,64,51,58,45,34,79,55,28,29.95,29.62,10,1,12,0.00
2012-4-3,76,60,40,50,40,31,75,50,32,30.04,29.83,12,2,17,0.00
2012-4-4,84,70,59,60,55,47,80,60,39,29.83,29.59,12,2,16,0.55
2012-4-5,66,60,52,59,45,35,84,58,41,29.86,29.65,9,1,15,0.04
2012-4-6,62,53,43,42,36,29,75,56,34,30.07,29.83,9,1,13,0.16
2012-4-7,66,50,36,35,30,27,75,49,27,30.27,30.10,12,1,16,0.00
2012-4-8,75,57,37,44,35,28,75,46,25,30.16,29.89,19,2,22,0.00
2012-4-9,73,61,49,40,35,31,62,40,24,30.04,29.83,16,3,25,0.00
2012-4-10,73,59,43,42,35,31,70,43,25,29.95,29.74,26,4,30,0.00
2012-4-11,57,52,42,35,26,21,49,37,31,30.13,29.80,9,1,20,0.00
2012-4-12,62,49,36,33,28,21,58,44,31,30.22,30.10,10,1,14,0.08
2012-4-13,66,51,36,42,33,26,74,52,33,30.27,30.16,7,1,12,0.00
2012-4-14,75,58,40,48,37,30,76,49,27,30.33,30.16,16,3,22,0.00
2012-4-15,80,70,59,58,53,46,78,57,41,30.22,30.13,16,4,22,0.00
2012-4-16,84,73,64,56,54,51,70,52,34,30.19,30.04,19,5,24,0.00
2012-4-17,84,73,60,61,53,41,77,51,35,30.16,30.07,7,0,9,0.00
2012-4-18,71,66,58,46,42,40,60,43,36,30.16,30.04,5,0,9,0.00
2012-4-19,65,60,55,52,48,43,74,67,60,30.10,30.01,5,0,7,0.00
2012-4-20,73,63,51,57,51,44,84,67,50,30.04,29.86,6,1,12,0.00
2012-4-21,78,67,55,63,55,48,86,66,49,29.86,29.68,13,2,14,0.00
2012-4-22,68,58,51,57,52,46,84,80,68,29.74,29.45,0,0,9,0.83
2012-4-23,53,49,47,46,40,35,84,72,53,29.68,29.48,12,2,16,0.08
2012-4-24,64,52,35,40,32,29,82,52,28,29.80,29.68,19,3,23,0.00
2012-4-25,68,54,38,46,39,27,77,57,41,29.98,29.80,15,3,21,0.00
2012-4-26,75,66,56,61,55,46,83,69,50,29.92,29.74,13,3,22,0.43
2012-4-27,75,69,61,60,52,42,81,57,36,30.10,29.80,9,1,18,0.00
2012-4-28,62,58,56,46,44,41,67,58,48,30.22,30.10,5,0,9,0.00
2012-4-29,74,64,57,58,52,46,76,67,56,30.22,30.10,7,0,11,0.00
2012-4-30,78,68,60,61,58,52,81,70,54,30.27,30.10,7,1,16,0.00
2012-5-1,86,75,68,65,62,60,82,65,43,30.16,30.04,18,3,18,0.00
2012-5-2,88,77,68,68,63,60,83,64,41,30.13,30.04,12,2,15,0.00
2012-5-3,89,79,65,69,63,58,82,60,40,30.13,30.01,9,1,12,0.00
2012-5-4,88,76,62,68,60,55,87,60,39,30.07,29.89,12,2,16,0.00
2012-5-5,83,73,64,69,64,59,89,75,53,29.92,29.77,9,0,12,0.91
2012-5-6,72,69,64,66,63,59,90,81,69,30.04,29.89,0,0,8,0.00
2012-5-7,76,68,58,60,57,54,88,71,51,30.07,29.98,7,0,9,0.00
2012-5-8,78,69,59,60,57,54,88,66,46,30.04,29.83,11,3,13,0.00
2012-5-9,76,68,61,66,60,56,89,76,63,29.89,29.65,9,0,23,0.47
2012-5-10,71,62,52,57,49,42,91,65,36,29.95,29.68,11,1,16,0.00
2012-5-11,72,60,46,50,43,40,89,58,32,30.24,29.98,9,1,11,0.00
2012-5-12,76,62,45,55,46,40,88,60,33,30.36,30.22,8,1,13,0.00
2012-5-13,75,66,58,62,56,50,87,71,48,30.27,30.16,6,1,12,0.08
2012-5-14,76,68,63,65,61,60,90,82,58,30.16,29.95,9,0,15,0.20
2012-5-15,81,72,67,69,65,60,93,79,56,30.01,29.89,9,1,16,0.12
2012-5-16,81,73,66,70,64,60,92,75,49,29.98,29.86,6,0,9,0.04
2012-5-17,79,70,63,68,62,58,93,77,58,30.04,29.92,9,0,9,0.16
2012-5-18,76,67,59,58,48,43,77,53,33,30.10,30.04,6,0,9,0.00
2012-5-19,76,65,53,48,45,41,75,51,31,30.13,30.04,7,0,9,0.00
2012-5-20,80,67,50,58,50,44,87,59,30,30.13,30.04,6,1,12,0.00
2012-5-21,80,72,67,64,62,58,84,70,52,30.04,29.86,5,0,9,0.00
2012-5-22,84,72,62,68,61,57,91,70,40,29.89,29.77,9,1,13,0.00
2012-5-23,81,70,65,66,62,54,89,76,47,29.95,29.80,5,0,15,0.55
2012-5-24,84,72,63,71,64,60,94,78,54,30.04,29.95,5,0,15,0.00
2012-5-25,85,75,63,71,64,59,93,72,45,30.13,30.04,5,0,7,0.00
2012-5-26,84,75,65,69,64,61,92,70,46,30.16,30.07,5,0,8,0.00
2012-5-27,84,74,66,70,66,60,90,76,59,30.16,30.07,9,0,11,0.00
2012-5-28,86,77,71,71,68,64,91,75,51,30.10,29.98,7,1,16,0.00
2012-5-29,86,78,71,72,67,65,92,72,50,30.04,29.83,12,2,15,0.00
2012-5-30,78,73,65,70,66,60,91,81,57,29.86,29.71,4,0,8,0.55
2012-5-31,89,76,62,69,60,54,93,62,32,29.89,29.80,11,1,17,0.00
2012-6-1,84,74,66,74,65,56,89,76,54,29.89,29.68,11,1,22,1.38
2012-6-2,75,67,58,62,55,48,90,67,42,29.89,29.77,9,1,12,0.04
2012-6-3,78,67,52,58,51,47,90,61,38,29.95,29.80,13,3,19,0.00
2012-6-4,82,72,60,63,55,49,87,58,33,29.80,29.65,8,1,17,0.00
2012-6-5,74,68,60,55,52,50,72,57,43,29.95,29.71,5,0,9,0.00
2012-6-6,72,63,56,54,51,49,82,67,44,30.01,29.92,5,0,7,0.00
2012-6-7,79,67,53,59,53,48,90,64,39,30.07,29.98,9,0,15,0.00
2012-6-8,82,70,56,62,53,49,90,60,32,30.04,29.98,5,0,12,0.04
2012-6-9,87,73,56,62,54,51,87,57,30,30.10,29.98,11,2,14,0.00
2012-6-10,87,76,63,65,58,53,84,57,32,30.16,30.07,8,2,12,0.00
2012-6-11,82,74,68,70,66,58,89,77,65,30.16,30.07,6,1,13,0.39
2012-6-12,83,76,71,71,69,68,90,81,64,30.07,29.86,9,2,16,0.00
2012-6-13,83,75,65,71,65,54,91,72,49,30.01,29.86,6,0,7,0.59
2012-6-14,77,68,55,64,58,50,87,72,63,30.16,30.01,6,0,7,0.00
2012-6-15,79,70,59,60,56,50,86,63,46,30.24,30.13,6,0,9,0.00
2012-6-16,79,68,53,59,51,48,87,57,36,30.27,30.16,5,0,11,0.00
2012-6-17,79,68,54,60,52,48,87,60,37,30.19,30.01,5,0,9,0.00
2012-6-18,83,71,62,66,60,53,83,69,45,30.13,30.04,9,1,12,0.00
2012-6-19,90,79,68,66,64,61,82,63,42,30.16,30.07,12,2,14,0.00
2012-6-20,92,80,69,72,67,63,89,67,40,30.16,30.04,6,0,9,0.00
2012-6-21,93,81,70,73,68,64,89,68,42,30.07,29.89,8,1,14,0.00
2012-6-22,94,82,72,72,67,62,83,64,37,29.92,29.77,13,2,16,0.00
2012-6-23,86,78,71,71,68,66,88,74,53,30.01,29.89,0,0,6,0.00
2012-6-24,89,80,68,72,65,57,90,63,34,30.04,29.89,9,1,16,0.00
2012-6-25,92,81,71,72,67,62,88,64,39,29.95,29.68,11,2,18,0.08
2012-6-26,79,72,62,66,50,44,82,50,32,29.92,29.80,6,0,12,0.00
2012-6-27,86,71,55,59,51,48,85,53,29,29.98,29.89,7,0,11,0.00
2012-6-28,95,78,58,62,54,50,85,50,23,30.01,29.86,12,3,23,0.00
2012-6-29,103,86,68,71,64,59,79,52,29,29.86,29.74,9,1,13,0.00
2012-6-30,102,87,69,69,62,56,76,46,26,29.89,29.80,12,2,16,0.00
2012-7-1,101,83,73,76,67,57,79,60,31,29.98,29.83,8,1,15,0.20
2012-7-2,91,82,74,68,62,58,71,53,35,30.01,29.92,9,1,16,0.00
2012-7-3,97,84,71,72,65,58,84,57,29,30.01,29.89,12,1,18,0.04
2012-7-4,96,81,72,73,67,61,88,65,36,29.98,29.89,17,1,19,0.00
2012-7-5,99,81,71,73,68,60,89,68,31,29.92,29.83,9,1,14,0.04
2012-7-6,96,81,70,72,68,65,88,69,41,29.95,29.86,5,0,10,0.04
2012-7-7,100,86,72,73,68,61,89,59,30,29.98,29.89,15,2,20,0.00
2012-7-8,102,90,76,73,67,60,80,50,27,29.95,29.80,13,3,16,0.00
2012-7-9,95,84,75,71,67,65,76,57,41,29.98,29.83,9,0,15,0.00
2012-7-10,82,77,74,74,70,67,87,81,70,30.04,29.92,0,0,0,1.10
2012-7-11,79,74,70,73,69,65,90,85,76,30.13,30.01,0,0,0,0.24
2012-7-12,82,76,70,70,67,66,88,75,58,30.19,30.10,0,0,0,0.00
2012-7-13,86,77,72,72,69,66,89,76,56,30.22,30.13,5,0,14,0.00
2012-7-14,91,81,73,75,70,66,91,73,45,30.22,30.10,11,1,12,0.00
2012-7-15,91,83,74,74,69,61,88,66,40,30.22,30.04,11,2,13,0.00
2012-7-16,93,84,76,73,69,67,78,63,43,30.10,29.89,11,2,13,0.00
2012-7-17,96,84,73,74,69,65,87,64,40,29.95,29.86,9,0,12,0.00
2012-7-18,95,83,75,76,71,65,85,70,42,29.98,29.89,13,2,18,0.39
2012-7-19,94,84,77,72,69,65,81,63,39,30.01,29.89,15,4,20,0.16
2012-7-20,90,80,76,74,71,67,87,74,47,29.95,29.86,13,2,23,0.24
2012-7-21,89,79,72,75,71,66,89,78,56,30.10,29.95,9,2,16,0.31
2012-7-22,86,77,72,75,72,68,91,85,67,30.19,30.07,0,0,8,0.31
2012-7-23,94,82,72,76,70,66,93,71,40,30.16,30.01,16,2,33,0.00
2012-7-24,94,82,74,75,71,65,88,71,47,30.01,29.80,14,2,16,0.00
2012-7-25,88,80,71,68,66,64,83,64,45,29.98,29.86,6,0,9,0.00
2012-7-26,97,86,76,75,70,66,84,61,38,29.92,29.77,16,4,19,0.00
2012-7-27,98,85,75,77,70,64,87,64,36,29.95,29.80,16,2,16,0.28
2012-7-28,93,82,72,75,70,62,88,69,41,30.04,29.89,9,1,16,0.04
2012-7-29,90,79,69,71,66,59,90,68,35,30.01,29.92,6,0,9,0.04
2012-7-30,87,77,71,75,69,65,90,77,53,30.04,29.95,5,0,12,0.00
2012-7-31,87,77,68,72,68,65,92,76,53,30.01,29.89,7,0,11,0.00
2012-8-1,89,78,71,72,68,61,90,74,45,29.92,29.83,12,1,13,0.12
2012-8-2,91,79,70,77,68,62,93,71,38,29.98,29.86,9,1,14,0.00
2012-8-3,90,80,68,70,67,64,89,66,43,30.10,29.95,9,1,13,0.00
2012-8-4,91,82,72,76,68,63,90,65,41,30.22,30.07,9,2,15,0.00
2012-8-5,88,81,74,75,70,67,89,70,52,30.22,30.10,13,2,16,0.04
2012-8-6,91,81,75,73,69,65,85,71,43,30.13,30.01,13,2,16,0.55
2012-8-7,85,78,74,74,72,70,90,83,65,30.07,29.98,6,0,9,0.16
2012-8-8,87,77,69,74,71,63,91,82,61,30.04,29.92,12,1,14,1.02
2012-8-9,87,77,66,74,69,64,94,78,60,30.01,29.86,8,1,12,0.00
2012-8-10,84,78,74,73,70,67,85,78,64,29.89,29.80,12,2,22,0.04
2012-8-11,86,77,73,74,71,67,89,81,63,29.95,29.86,10,1,13,0.04
2012-8-12,86,78,72,72,68,64,91,75,49,30.01,29.92,8,0,11,0.00
2012-8-13,87,78,67,74,67,63,92,72,45,30.04,29.95,5,0,10,0.00
2012-8-14,89,79,67,70,65,60,91,65,39,29.95,29.86,15,2,16,0.00
2012-8-15,86,77,71,72,69,63,87,75,58,29.92,29.86,9,1,20,0.55
2012-8-16,86,76,68,69,65,60,91,72,43,30.04,29.92,4,0,9,0.00
2012-8-17,88,78,66,72,65,62,92,69,42,30.01,29.83,9,1,14,0.00
2012-8-18,85,77,69,69,66,63,89,70,52,29.92,29.83,5,0,8,0.00
2012-8-19,74,73,70,70,68,66,90,84,75,29.92,29.83,0,0,7,0.71
2012-8-20,80,73,68,69,66,64,91,81,59,29.98,29.86,6,0,9,0.08
2012-8-21,81,74,69,71,68,66,93,81,63,30.07,29.98,0,0,0,0.00
2012-8-22,81,74,69,72,68,66,93,81,61,30.13,30.04,0,0,7,0.00
2012-8-23,83,74,68,70,64,59,92,73,46,30.16,30.10,0,0,6,0.00
2012-8-24,77,72,68,69,64,60,90,76,60,30.16,30.10,0,0,0,0.00
2012-8-25,73,69,65,66,63,61,90,83,75,30.13,30.07,0,0,9,1.30
2012-8-26,82,73,65,68,65,62,93,79,57,30.19,30.10,7,0,9,0.00
2012-8-27,86,77,68,74,69,64,93,79,60,30.16,30.01,9,0,9,0.00
2012-8-28,86,78,71,75,71,68,93,80,65,30.04,29.92,11,2,20,0.00
2012-8-29,84,77,70,73,69,64,90,76,51,30.01,29.92,4,0,5,0.00
2012-8-30,87,77,67,76,67,64,94,75,52,30.16,30.01,8,1,12,0.00
2012-8-31,90,79,69,75,70,66,94,77,52,30.22,30.07,11,1,13,0.00
2012-9-1,90,82,72,78,72,68,92,74,50,30.13,30.01,0,0,6,0.00
2012-9-2,89,80,75,76,72,68,90,78,59,30.04,29.95,14,0,19,0.08
2012-9-3,87,77,71,77,71,68,92,84,66,30.07,29.95,8,0,11,1.42
2012-9-4,86,78,73,74,70,67,94,78,52,30.04,29.92,5,0,11,0.00
2012-9-5,87,79,74,73,70,66,88,74,53,29.95,29.86,12,2,18,0.00
2012-9-6,89,78,72,75,70,66,89,79,54,29.95,29.86,12,2,18,2.17
2012-9-7,82,76,72,72,69,67,91,82,60,29.98,29.86,6,0,8,0.00
2012-9-8,88,76,69,75,69,64,94,80,54,29.86,29.68,11,1,13,0.79
2012-9-9,77,70,62,66,60,52,89,71,43,29.95,29.80,9,0,9,0.16
2012-9-10,76,66,56,61,54,49,91,68,41,30.16,29.98,5,0,11,0.00
2012-9-11,75,64,54,60,52,49,91,67,40,30.30,30.16,7,0,7,0.00
2012-9-12,76,64,53,63,52,49,91,67,40,30.36,30.27,0,0,7,0.00
2012-9-13,78,66,53,63,55,49,91,70,46,30.36,30.24,6,0,7,0.00
2012-9-14,80,71,62,68,62,58,92,76,57,30.27,30.13,0,0,0,0.00
2012-9-15,78,70,61,68,60,57,93,74,56,30.19,30.10,7,0,8,0.00
2012-9-16,65,62,59,60,58,54,90,86,79,30.19,30.10,8,0,9,0.63
2012-9-17,80,70,62,68,64,59,92,83,65,30.13,29.95,6,0,9,0.04
2012-9-18,79,73,69,74,69,67,93,88,73,29.95,29.71,12,3,22,2.05
2012-9-19,70,66,58,68,58,50,93,77,52,30.13,29.80,0,0,8,0.08
2012-9-20,73,64,54,62,55,51,92,74,50,30.19,30.07,0,0,6,0.00
2012-9-21,79,67,55,64,58,52,93,74,48,30.10,30.01,7,1,12,0.00
2012-9-22,84,72,61,67,61,57,91,71,45,30.01,29.86,13,2,16,0.00
2012-9-23,73,68,56,65,51,46,77,57,39,30.13,29.95,6,0,9,0.00
2012-9-24,70,59,50,55,47,44,86,66,41,30.22,30.13,5,0,9,0.00
2012-9-25,75,61,47,58,49,42,90,68,39,30.24,30.16,9,1,13,0.00
2012-9-26,80,66,54,63,55,49,91,70,42,30.22,30.13,8,1,13,0.00
2012-9-27,82,68,57,65,58,53,92,73,40,30.19,30.07,5,0,11,0.00
2012-9-28,83,70,59,68,61,56,92,74,47,30.10,29.98,9,0,12,0.04
2012-9-29,69,65,60,65,61,58,91,89,84,30.01,29.89,0,0,0,0.67
2012-9-30,71,64,58,60,56,53,92,79,54,29.92,29.86,0,0,9,0.04
2012-10-1,66,63,61,62,60,57,92,88,81,29.95,29.89,0,0,0,0.75
2012-10-2,85,76,66,76,71,62,95,85,62,29.95,29.83,9,1,13,0.00
2012-10-3,84,78,74,75,72,69,93,83,61,30.16,29.98,8,0,12,0.00
2012-10-4,77,72,65,70,65,61,90,80,64,30.22,30.13,12,1,12,0.00
2012-10-5,78,67,59,66,59,56,93,76,48,30.19,30.04,6,0,9,0.00
2012-10-6,81,68,57,68,58,53,93,72,44,30.01,29.86,12,2,16,0.00
2012-10-7,67,57,52,55,50,46,85,76,63,30.13,29.98,5,0,7,0.16
2012-10-8,54,52,50,49,46,42,90,82,69,30.24,30.13,3,0,6,0.51
2012-10-9,57,53,50,54,50,47,92,89,83,30.16,30.07,0,0,3,0.00
2012-10-10,70,61,54,55,52,48,92,74,47,30.10,29.98,9,2,20,0.00
2012-10-11,65,54,45,48,43,40,87,69,43,30.30,30.10,9,0,9,0.00
2012-10-12,70,55,42,57,44,38,92,69,40,30.36,30.16,6,0,11,0.00
2012-10-13,65,54,44,46,40,36,78,60,44,30.48,30.33,8,0,11,0.00
2012-10-14,74,58,42,59,49,38,93,73,48,30.33,30.04,9,1,14,0.00
2012-10-15,72,65,58,66,60,53,91,86,80,30.04,29.71,5,0,11,0.47
2012-10-16,67,56,45,53,45,41,90,69,42,29.98,29.83,9,0,11,0.00
2012-10-17,69,56,46,55,45,42,92,71,42,30.01,29.92,6,0,11,0.00
2012-10-18,76,60,45,63,54,41,93,79,57,29.95,29.80,7,0,11,0.00
2012-10-19,76,67,51,66,55,39,92,69,32,29.77,29.68,16,2,22,0.08
2012-10-20,68,56,45,52,44,40,88,66,40,29.95,29.77,8,0,12,0.00
2012-10-21,66,54,42,48,40,36,85,62,39,30.16,29.95,8,0,9,0.00
2012-10-22,70,54,39,53,42,35,90,68,40,30.24,30.13,5,0,9,0.00
2012-10-23,76,58,43,57,46,38,91,69,37,30.19,30.10,9,1,13,0.00
2012-10-24,78,61,48,61,50,44,92,69,38,30.19,30.07,9,1,11,0.00
2012-10-25,77,62,49,62,52,44,92,73,46,30.19,30.10,4,0,8,0.00
2012-10-26,71,64,57,62,59,52,92,82,71,30.13,29.95,8,0,9,0.00
2012-10-27,66,65,63,62,57,53,88,77,68,29.92,29.68,8,1,9,0.00
2012-10-28,63,60,55,52,48,43,84,63,50,29.68,29.57,7,0,9,0.00
2012-10-29,55,48,43,50,42,36,87,79,60,29.57,29.30,12,4,23,0.31
2012-10-30,51,46,42,38,32,28,83,58,44,29.59,29.27,20,9,27,0.20
2012-10-31,55,49,40,35,31,29,69,52,43,29.77,29.59,12,4,19,0.00
2012-11-1,57,49,38,35,32,29,70,53,40,29.83,29.74,13,1,23,0.00
2012-11-2,61,45,32,42,32,26,86,63,38,29.98,29.80,8,1,14,0.00
2012-11-3,58,44,33,38,30,26,83,61,37,30.10,29.98,8,1,12,0.00
2012-11-4,54,48,40,39,35,32,75,62,48,30.10,29.98,4,0,8,0.00
2012-11-5,54,45,36,38,31,27,77,60,40,30.13,30.01,5,0,9,0.00
2012-11-6,46,40,32,32,28,25,80,63,49,30.13,29.92,0,0,7,0.00
2012-11-7,52,44,36,32,30,26,68,56,46,29.95,29.83,5,0,7,0.00
2012-11-8,59,43,33,37,28,21,83,57,29,30.10,29.95,9,0,12,0.00
2012-11-9,61,43,29,35,28,21,79,58,36,30.24,30.10,8,0,11,0.00
2012-11-10,69,48,33,43,33,26,85,59,31,30.39,30.24,9,1,12,0.00
2012-11-11,71,52,37,47,40,30,83,64,41,30.48,30.39,11,1,12,0.00
2012-11-12,74,61,46,61,51,41,91,71,48,30.42,30.19,11,1,16,0.00
2012-11-13,64,52,44,59,47,38,85,81,70,30.39,30.16,6,0,11,0.24
2012-11-14,51,42,34,37,29,25,77,60,43,30.48,30.36,5,0,9,0.00
2012-11-15,48,44,39,41,36,28,85,72,60,30.39,30.22,0,0,8,0.28
2012-11-16,54,46,37,41,36,30,84,68,46,30.39,30.24,5,0,12,0.00
2012-11-17,56,45,33,33,30,27,82,59,37,30.48,30.39,7,1,11,0.00
2012-11-18,58,52,46,44,40,33,77,65,55,30.45,30.33,6,1,13,0.00
2012-11-19,59,53,50,45,41,40,71,64,56,30.33,30.16,6,0,9,0.00
2012-11-20,59,52,42,44,41,35,77,67,50,30.16,30.04,0,0,6,0.00
2012-11-21,58,44,34,43,33,27,88,67,42,30.19,30.10,6,0,9,0.00
2012-11-22,60,43,32,35,28,23,82,59,34,30.24,30.13,6,0,9,0.00
2012-11-23,65,45,28,38,30,21,82,58,34,30.16,29.86,9,2,16,0.00
2012-11-24,52,44,32,37,23,12,62,42,37,30.13,29.86,15,1,19,0.00
2012-11-25,50,35,22,25,17,11,68,50,36,30.19,30.01,8,1,16,0.00
2012-11-26,64,42,28,33,25,18,74,53,29,30.19,30.07,8,1,12,0.00
2012-11-27,57,45,35,38,32,23,74,62,42,30.24,30.10,0,0,7,0.04
2012-11-28,51,39,30,34,28,22,83,64,43,30.39,30.24,12,0,12,0.00
2012-11-29,53,36,24,32,23,17,82,62,38,30.48,30.36,6,0,13,0.04
2012-11-30,60,41,28,38,28,21,82,61,36,30.39,30.30,9,1,13,0.00
2012-12-1,62,44,32,46,33,25,84,68,45,30.39,30.30,4,0,9,0.00
2012-12-2,66,48,35,52,39,29,91,72,46,30.39,30.22,12,1,13,0.00
2012-12-3,72,59,50,57,49,45,90,72,46,30.27,30.22,6,0,10,0.00
2012-12-4,70,55,44,57,46,39,91,74,50,30.30,30.19,11,1,16,0.00
2012-12-5,66,56,43,58,49,36,90,76,59,30.22,30.13,12,1,13,0.00
2012-12-6,50,45,38,41,31,27,86,60,46,30.33,30.19,7,0,9,0.00
2012-12-7,58,51,46,46,40,32,76,65,58,30.22,29.98,0,0,5,0.00
2012-12-8,64,55,48,52,49,44,91,80,63,30.04,29.95,9,1,13,0.00
2012-12-9,70,59,48,60,53,43,93,82,65,30.13,29.98,9,1,11,0.00
2012-12-10,70,66,63,64,59,54,94,78,56,29.98,29.68,9,3,19,0.00
2012-12-11,65,59,51,56,43,34,79,57,43,30.13,29.71,9,1,12,0.00
2012-12-12,51,46,40,35,30,27,75,55,46,30.33,30.16,6,0,11,0.08
2012-12-13,51,42,32,34,32,26,79,68,51,30.39,30.27,4,0,8,0.12
2012-12-14,55,37,26,37,26,21,86,67,37,30.36,30.22,6,0,9,0.00
2012-12-15,54,42,30,39,30,22,84,65,40,30.27,30.10,0,0,9,0.00
2012-12-16,58,54,50,55,49,36,90,82,58,30.10,29.89,7,0,11,0.16
2012-12-17,63,59,56,58,54,53,93,85,72,29.89,29.59,9,2,16,0.20
2012-12-18,62,56,40,54,43,27,89,64,39,29.89,29.65,11,3,20,0.00
2012-12-19,64,45,32,39,31,26,84,62,35,30.13,29.89,12,1,18,0.00
2012-12-20,63,50,38,61,41,29,91,71,57,30.16,29.45,9,2,19,0.43
2012-12-21,63,45,38,61,26,17,91,47,38,29.77,29.45,22,9,30,0.04
2012-12-22,50,40,30,24,19,16,57,42,35,30.07,29.77,16,4,19,0.00
2012-12-23,56,39,25,27,21,16,72,51,31,30.13,30.01,9,1,16,0.00
2012-12-24,53,48,42,44,34,25,72,57,46,30.04,29.89,15,1,17,0.00
2012-12-25,59,52,45,44,40,37,81,65,45,30.13,29.92,9,1,14,0.00
2012-12-26,50,46,41,48,41,33,93,84,60,30.07,29.42,15,3,16,0.91
2012-12-27,49,42,36,36,28,20,83,58,44,30.07,29.62,12,4,23,0.00
2012-12-28,45,38,28,30,24,19,73,58,46,30.19,30.01,5,0,9,0.00
2012-12-29,51,44,39,42,33,25,87,67,48,30.01,29.62,9,2,21,0.28
2012-12-30,46,38,28,24,19,16,61,46,38,30.39,29.95,12,2,18,0.04
2012-12-31,53,38,23,28,22,14,76,53,35,30.36,30.10,12,2,20,0.00
2013-1-1,51,48,47,45,35,24,85,63,39,30.10,29.92,12,2,13,0.16